sensor_id;sensor_type;location;lat;lon;timestamp;P1;durP1;ratioP1;P2;durP2;ratioP2
53287;SDS011;39172;45.550;12.072;2022-08-21T00:02:32;0.60;;;0.40;;
53287;SDS011;39172;45.550;12.072;2022-08-21T00:08:33;0.90;;;0.60;;
53287;SDS011;39172;45.550;12.072;2022-08-21T00:14:34;0.60;;;0.50;;
53287;SDS011;39172;45.550;12.072;2022-08-21T00:20:36;0.77;;;0.55;;
53287;SDS011;39172;45.550;12.072;2022-08-21T00:26:37;1.25;;;0.40;;
53287;SDS011;39172;45.550;12.072;2022-08-21T00:32:39;0.70;;;0.40;;
53287;SDS011;39172;45.550;12.072;2022-08-21T00:38:40;0.60;;;0.40;;
53287;SDS011;39172;45.550;12.072;2022-08-21T00:44:42;0.60;;;0.43;;
53287;SDS011;39172;45.550;12.072;2022-08-21T00:50:45;0.57;;;0.40;;
53287;SDS011;39172;45.550;12.072;2022-08-21T00:56:48;0.40;;;0.30;;
53287;SDS011;39172;45.550;12.072;2022-08-21T01:02:50;1.00;;;0.60;;
53287;SDS011;39172;45.550;12.072;2022-08-21T01:08:51;0.88;;;0.60;;
53287;SDS011;39172;45.550;12.072;2022-08-21T01:14:52;0.70;;;0.50;;
53287;SDS011;39172;45.550;12.072;2022-08-21T01:21:00;0.68;;;0.43;;
53287;SDS011;39172;45.550;12.072;2022-08-21T01:27:02;0.80;;;0.50;;
53287;SDS011;39172;45.550;12.072;2022-08-21T01:33:04;0.50;;;0.40;;
53287;SDS011;39172;45.550;12.072;2022-08-21T01:39:05;0.90;;;0.50;;
53287;SDS011;39172;45.550;12.072;2022-08-21T01:45:07;1.00;;;0.77;;
53287;SDS011;39172;45.550;12.072;2022-08-21T01:51:08;0.73;;;0.57;;
53287;SDS011;39172;45.550;12.072;2022-08-21T01:57:09;0.80;;;0.60;;
53287;SDS011;39172;45.550;12.072;2022-08-21T02:03:10;0.50;;;0.40;;
53287;SDS011;39172;45.550;12.072;2022-08-21T02:09:12;0.77;;;0.70;;
53287;SDS011;39172;45.550;12.072;2022-08-21T02:15:15;0.90;;;0.60;;
53287;SDS011;39172;45.550;12.072;2022-08-21T02:21:17;0.70;;;0.70;;
53287;SDS011;39172;45.550;12.072;2022-08-21T02:27:18;0.65;;;0.50;;
53287;SDS011;39172;45.550;12.072;2022-08-21T02:33:21;0.90;;;0.70;;
53287;SDS011;39172;45.550;12.072;2022-08-21T02:39:22;1.80;;;0.80;;
53287;SDS011;39172;45.550;12.072;2022-08-21T02:45:23;0.70;;;0.52;;
53287;SDS011;39172;45.550;12.072;2022-08-21T02:51:23;1.17;;;0.80;;
53287;SDS011;39172;45.550;12.072;2022-08-21T02:57:25;0.80;;;0.70;;
53287;SDS011;39172;45.550;12.072;2022-08-21T03:03:27;0.70;;;0.50;;
53287;SDS011;39172;45.550;12.072;2022-08-21T03:09:28;0.60;;;0.50;;
53287;SDS011;39172;45.550;12.072;2022-08-21T03:15:29;1.10;;;0.80;;
53287;SDS011;39172;45.550;12.072;2022-08-21T03:21:30;2.17;;;1.13;;
53287;SDS011;39172;45.550;12.072;2022-08-21T03:27:32;2.47;;;1.20;;
53287;SDS011;39172;45.550;12.072;2022-08-21T03:33:34;1.40;;;1.13;;
53287;SDS011;39172;45.550;12.072;2022-08-21T03:39:37;1.27;;;0.95;;
53287;SDS011;39172;45.550;12.072;2022-08-21T03:45:38;1.40;;;1.20;;
53287;SDS011;39172;45.550;12.072;2022-08-21T03:51:39;1.65;;;1.33;;
53287;SDS011;39172;45.550;12.072;2022-08-21T03:57:41;1.45;;;1.13;;
53287;SDS011;39172;45.550;12.072;2022-08-21T04:03:42;1.80;;;1.30;;
53287;SDS011;39172;45.550;12.072;2022-08-21T04:09:43;1.48;;;1.20;;
53287;SDS011;39172;45.550;12.072;2022-08-21T04:15:44;1.23;;;0.88;;
53287;SDS011;39172;45.550;12.072;2022-08-21T04:21:45;1.00;;;0.80;;
53287;SDS011;39172;45.550;12.072;2022-08-21T04:27:46;1.38;;;1.10;;
53287;SDS011;39172;45.550;12.072;2022-08-21T04:33:47;1.60;;;1.13;;
53287;SDS011;39172;45.550;12.072;2022-08-21T04:39:48;1.17;;;0.98;;
53287;SDS011;39172;45.550;12.072;2022-08-21T04:45:50;1.90;;;1.10;;
53287;SDS011;39172;45.550;12.072;2022-08-21T04:51:51;1.65;;;0.90;;
53287;SDS011;39172;45.550;12.072;2022-08-21T04:57:52;1.00;;;0.90;;
53287;SDS011;39172;45.550;12.072;2022-08-21T05:03:55;0.98;;;0.88;;
53287;SDS011;39172;45.550;12.072;2022-08-21T05:09:56;1.13;;;0.70;;
53287;SDS011;39172;45.550;12.072;2022-08-21T05:15:59;1.85;;;1.10;;
53287;SDS011;39172;45.550;12.072;2022-08-21T05:22:00;1.10;;;1.00;;
53287;SDS011;39172;45.550;12.072;2022-08-21T05:28:01;0.82;;;0.63;;
53287;SDS011;39172;45.550;12.072;2022-08-21T05:34:02;0.70;;;0.50;;
53287;SDS011;39172;45.550;12.072;2022-08-21T05:40:03;1.05;;;0.57;;
53287;SDS011;39172;45.550;12.072;2022-08-21T05:46:06;1.42;;;0.70;;
53287;SDS011;39172;45.550;12.072;2022-08-21T05:52:08;1.13;;;1.00;;
53287;SDS011;39172;45.550;12.072;2022-08-21T05:58:08;0.60;;;0.40;;
53287;SDS011;39172;45.550;12.072;2022-08-21T06:04:09;1.23;;;0.90;;
53287;SDS011;39172;45.550;12.072;2022-08-21T06:10:11;1.38;;;0.90;;
53287;SDS011;39172;45.550;12.072;2022-08-21T06:16:13;1.10;;;0.80;;
53287;SDS011;39172;45.550;12.072;2022-08-21T06:22:15;1.83;;;0.95;;
53287;SDS011;39172;45.550;12.072;2022-08-21T06:28:16;0.82;;;0.60;;
53287;SDS011;39172;45.550;12.072;2022-08-21T06:34:17;1.13;;;0.90;;
53287;SDS011;39172;45.550;12.072;2022-08-21T06:40:18;0.75;;;0.70;;
53287;SDS011;39172;45.550;12.072;2022-08-21T06:46:19;1.58;;;1.00;;
53287;SDS011;39172;45.550;12.072;2022-08-21T06:52:20;2.22;;;0.77;;
53287;SDS011;39172;45.550;12.072;2022-08-21T06:58:22;0.80;;;0.70;;
53287;SDS011;39172;45.550;12.072;2022-08-21T07:04:23;1.25;;;0.90;;
53287;SDS011;39172;45.550;12.072;2022-08-21T07:10:25;0.82;;;0.60;;
53287;SDS011;39172;45.550;12.072;2022-08-21T07:16:26;1.42;;;0.60;;
53287;SDS011;39172;45.550;12.072;2022-08-21T07:22:27;0.90;;;0.80;;
53287;SDS011;39172;45.550;12.072;2022-08-21T07:28:28;0.80;;;0.60;;
53287;SDS011;39172;45.550;12.072;2022-08-21T07:34:30;1.55;;;0.80;;
53287;SDS011;39172;45.550;12.072;2022-08-21T07:40:31;1.00;;;0.70;;
53287;SDS011;39172;45.550;12.072;2022-08-21T07:46:31;0.85;;;0.80;;
53287;SDS011;39172;45.550;12.072;2022-08-21T07:52:33;1.00;;;0.70;;
53287;SDS011;39172;45.550;12.072;2022-08-21T07:58:34;1.83;;;0.70;;
53287;SDS011;39172;45.550;12.072;2022-08-21T08:04:35;1.27;;;0.60;;
53287;SDS011;39172;45.550;12.072;2022-08-21T08:10:36;1.42;;;1.00;;
53287;SDS011;39172;45.550;12.072;2022-08-21T08:16:38;1.90;;;1.08;;
53287;SDS011;39172;45.550;12.072;2022-08-21T08:22:39;1.83;;;1.00;;
53287;SDS011;39172;45.550;12.072;2022-08-21T08:28:41;3.50;;;1.17;;
53287;SDS011;39172;45.550;12.072;2022-08-21T08:34:42;1.60;;;0.80;;
53287;SDS011;39172;45.550;12.072;2022-08-21T08:40:46;2.17;;;0.82;;
53287;SDS011;39172;45.550;12.072;2022-08-21T08:46:48;1.13;;;0.82;;
53287;SDS011;39172;45.550;12.072;2022-08-21T08:58:51;3.15;;;1.10;;
53287;SDS011;39172;45.550;12.072;2022-08-21T09:04:53;1.52;;;1.00;;
53287;SDS011;39172;45.550;12.072;2022-08-21T09:17:35;2.17;;;1.00;;
53287;SDS011;39172;45.550;12.072;2022-08-21T09:29:30;2.08;;;0.90;;
53287;SDS011;39172;45.550;12.072;2022-08-21T09:35:32;2.55;;;0.90;;
53287;SDS011;39172;45.550;12.072;2022-08-21T09:41:36;1.90;;;0.90;;
53287;SDS011;39172;45.550;12.072;2022-08-21T09:47:37;1.50;;;1.10;;
53287;SDS011;39172;45.550;12.072;2022-08-21T09:53:38;1.27;;;1.00;;
53287;SDS011;39172;45.550;12.072;2022-08-21T09:59:44;2.85;;;1.20;;
53287;SDS011;39172;45.550;12.072;2022-08-21T10:11:59;1.77;;;1.10;;
53287;SDS011;39172;45.550;12.072;2022-08-21T10:24:17;1.42;;;1.00;;
53287;SDS011;39172;45.550;12.072;2022-08-21T10:30:24;1.20;;;1.10;;
53287;SDS011;39172;45.550;12.072;2022-08-21T10:37:05;1.00;;;0.80;;
53287;SDS011;39172;45.550;12.072;2022-08-21T10:55:22;0.90;;;0.80;;
53287;SDS011;39172;45.550;12.072;2022-08-21T11:01:29;0.80;;;0.70;;
53287;SDS011;39172;45.550;12.072;2022-08-21T11:07:36;0.98;;;0.75;;
53287;SDS011;39172;45.550;12.072;2022-08-21T11:13:54;0.95;;;0.63;;
53287;SDS011;39172;45.550;12.072;2022-08-21T11:20:20;1.60;;;0.85;;
53287;SDS011;39172;45.550;12.072;2022-08-21T11:26:18;1.00;;;0.90;;
53287;SDS011;39172;45.550;12.072;2022-08-21T11:38:42;1.10;;;0.80;;
53287;SDS011;39172;45.550;12.072;2022-08-21T11:45:09;1.00;;;0.80;;
53287;SDS011;39172;45.550;12.072;2022-08-21T11:51:19;1.38;;;0.75;;
53287;SDS011;39172;45.550;12.072;2022-08-21T11:57:31;1.33;;;0.70;;
53287;SDS011;39172;45.550;12.072;2022-08-21T12:03:36;0.88;;;0.60;;
53287;SDS011;39172;45.550;12.072;2022-08-21T12:09:37;0.70;;;0.52;;
53287;SDS011;39172;45.550;12.072;2022-08-21T12:15:38;1.15;;;0.65;;
53287;SDS011;39172;45.550;12.072;2022-08-21T12:21:53;0.95;;;0.70;;
53287;SDS011;39172;45.550;12.072;2022-08-21T12:28:01;0.70;;;0.50;;
53287;SDS011;39172;45.550;12.072;2022-08-21T12:34:02;0.88;;;0.63;;
53287;SDS011;39172;45.550;12.072;2022-08-21T12:46:22;0.90;;;0.70;;
53287;SDS011;39172;45.550;12.072;2022-08-21T12:58:31;1.17;;;0.90;;
53287;SDS011;39172;45.550;12.072;2022-08-21T13:04:37;1.08;;;0.80;;
53287;SDS011;39172;45.550;12.072;2022-08-21T13:16:41;1.92;;;1.00;;
53287;SDS011;39172;45.550;12.072;2022-08-21T13:22:42;1.55;;;1.00;;
53287;SDS011;39172;45.550;12.072;2022-08-21T13:28:44;1.83;;;1.15;;
53287;SDS011;39172;45.550;12.072;2022-08-21T13:34:47;2.03;;;1.20;;
53287;SDS011;39172;45.550;12.072;2022-08-21T13:40:49;2.38;;;1.00;;
53287;SDS011;39172;45.550;12.072;2022-08-21T13:46:52;1.13;;;0.90;;
53287;SDS011;39172;45.550;12.072;2022-08-21T13:53:00;1.65;;;0.90;;
53287;SDS011;39172;45.550;12.072;2022-08-21T13:59:02;1.27;;;1.00;;
53287;SDS011;39172;45.550;12.072;2022-08-21T14:05:03;1.70;;;1.08;;
53287;SDS011;39172;45.550;12.072;2022-08-21T14:11:05;1.55;;;0.80;;
53287;SDS011;39172;45.550;12.072;2022-08-21T14:17:09;1.63;;;0.98;;
53287;SDS011;39172;45.550;12.072;2022-08-21T14:23:22;1.08;;;0.93;;
53287;SDS011;39172;45.550;12.072;2022-08-21T14:29:24;1.10;;;0.80;;
53287;SDS011;39172;45.550;12.072;2022-08-21T14:35:26;2.25;;;0.82;;
53287;SDS011;39172;45.550;12.072;2022-08-21T14:41:27;1.95;;;0.82;;
53287;SDS011;39172;45.550;12.072;2022-08-21T14:47:29;0.93;;;0.70;;
53287;SDS011;39172;45.550;12.072;2022-08-21T14:53:30;0.75;;;0.50;;
53287;SDS011;39172;45.550;12.072;2022-08-21T14:59:31;0.93;;;0.70;;
53287;SDS011;39172;45.550;12.072;2022-08-21T15:05:33;1.17;;;0.80;;
53287;SDS011;39172;45.550;12.072;2022-08-21T15:11:35;1.02;;;0.70;;
53287;SDS011;39172;45.550;12.072;2022-08-21T15:17:36;0.90;;;0.80;;
53287;SDS011;39172;45.550;12.072;2022-08-21T15:23:37;1.13;;;0.90;;
53287;SDS011;39172;45.550;12.072;2022-08-21T15:29:38;1.75;;;1.10;;
53287;SDS011;39172;45.550;12.072;2022-08-21T15:35:39;1.25;;;1.00;;
53287;SDS011;39172;45.550;12.072;2022-08-21T15:41:40;1.30;;;0.95;;
53287;SDS011;39172;45.550;12.072;2022-08-21T15:47:42;1.25;;;0.90;;
53287;SDS011;39172;45.550;12.072;2022-08-21T15:53:44;1.27;;;0.80;;
53287;SDS011;39172;45.550;12.072;2022-08-21T15:59:46;1.92;;;1.05;;
53287;SDS011;39172;45.550;12.072;2022-08-21T16:05:48;1.55;;;1.00;;
53287;SDS011;39172;45.550;12.072;2022-08-21T16:11:50;1.38;;;0.80;;
53287;SDS011;39172;45.550;12.072;2022-08-21T16:17:51;0.88;;;0.70;;
53287;SDS011;39172;45.550;12.072;2022-08-21T16:23:53;0.90;;;0.70;;
53287;SDS011;39172;45.550;12.072;2022-08-21T16:29:54;1.10;;;0.80;;
53287;SDS011;39172;45.550;12.072;2022-08-21T16:35:55;0.98;;;0.60;;
53287;SDS011;39172;45.550;12.072;2022-08-21T16:41:56;0.98;;;0.80;;
53287;SDS011;39172;45.550;12.072;2022-08-21T16:47:57;0.93;;;0.70;;
53287;SDS011;39172;45.550;12.072;2022-08-21T16:53:59;1.20;;;0.90;;
53287;SDS011;39172;45.550;12.072;2022-08-21T17:00:00;1.55;;;0.80;;
53287;SDS011;39172;45.550;12.072;2022-08-21T17:06:02;1.27;;;0.80;;
53287;SDS011;39172;45.550;12.072;2022-08-21T17:12:03;0.85;;;0.80;;
53287;SDS011;39172;45.550;12.072;2022-08-21T17:18:06;1.98;;;0.90;;
53287;SDS011;39172;45.550;12.072;2022-08-21T17:24:08;1.08;;;0.70;;
53287;SDS011;39172;45.550;12.072;2022-08-21T17:30:09;1.55;;;1.02;;
53287;SDS011;39172;45.550;12.072;2022-08-21T17:36:11;2.03;;;1.10;;
53287;SDS011;39172;45.550;12.072;2022-08-21T17:42:12;1.48;;;1.10;;
53287;SDS011;39172;45.550;12.072;2022-08-21T17:48:13;1.17;;;0.90;;
53287;SDS011;39172;45.550;12.072;2022-08-21T17:54:14;1.35;;;0.90;;
53287;SDS011;39172;45.550;12.072;2022-08-21T18:00:17;1.23;;;0.80;;
53287;SDS011;39172;45.550;12.072;2022-08-21T18:06:19;1.55;;;1.05;;
53287;SDS011;39172;45.550;12.072;2022-08-21T18:12:20;1.63;;;1.10;;
53287;SDS011;39172;45.550;12.072;2022-08-21T18:18:22;1.00;;;0.90;;
53287;SDS011;39172;45.550;12.072;2022-08-21T18:24:24;1.17;;;0.95;;
53287;SDS011;39172;45.550;12.072;2022-08-21T18:30:25;1.52;;;0.80;;
53287;SDS011;39172;45.550;12.072;2022-08-21T18:36:26;1.13;;;0.90;;
53287;SDS011;39172;45.550;12.072;2022-08-21T18:42:27;1.05;;;0.70;;
53287;SDS011;39172;45.550;12.072;2022-08-21T18:48:30;0.90;;;0.77;;
53287;SDS011;39172;45.550;12.072;2022-08-21T18:54:32;1.77;;;1.00;;
53287;SDS011;39172;45.550;12.072;2022-08-21T19:00:35;1.70;;;1.10;;
53287;SDS011;39172;45.550;12.072;2022-08-21T19:06:37;1.85;;;1.05;;
53287;SDS011;39172;45.550;12.072;2022-08-21T19:12:38;2.40;;;1.23;;
53287;SDS011;39172;45.550;12.072;2022-08-21T19:18:41;1.38;;;1.00;;
53287;SDS011;39172;45.550;12.072;2022-08-21T19:24:41;1.33;;;1.00;;
53287;SDS011;39172;45.550;12.072;2022-08-21T19:30:44;1.48;;;1.00;;
53287;SDS011;39172;45.550;12.072;2022-08-21T19:36:46;1.92;;;0.93;;
53287;SDS011;39172;45.550;12.072;2022-08-21T19:42:47;1.05;;;0.88;;
53287;SDS011;39172;45.550;12.072;2022-08-21T19:48:48;0.90;;;0.80;;
53287;SDS011;39172;45.550;12.072;2022-08-21T19:54:49;0.93;;;0.70;;
53287;SDS011;39172;45.550;12.072;2022-08-21T20:00:50;1.42;;;1.08;;
53287;SDS011;39172;45.550;12.072;2022-08-21T20:06:51;1.67;;;1.30;;
53287;SDS011;39172;45.550;12.072;2022-08-21T20:12:52;1.40;;;1.10;;
53287;SDS011;39172;45.550;12.072;2022-08-21T20:18:53;1.90;;;1.20;;
53287;SDS011;39172;45.550;12.072;2022-08-21T20:24:54;1.73;;;1.08;;
53287;SDS011;39172;45.550;12.072;2022-08-21T20:30:55;1.38;;;0.80;;
53287;SDS011;39172;45.550;12.072;2022-08-21T20:36:56;1.38;;;1.10;;
53287;SDS011;39172;45.550;12.072;2022-08-21T20:42:57;4.00;;;1.20;;
53287;SDS011;39172;45.550;12.072;2022-08-21T20:48:58;2.40;;;1.20;;
53287;SDS011;39172;45.550;12.072;2022-08-21T20:55:03;1.65;;;1.10;;
53287;SDS011;39172;45.550;12.072;2022-08-21T21:01:06;2.08;;;1.00;;
53287;SDS011;39172;45.550;12.072;2022-08-21T21:07:08;1.33;;;1.08;;
53287;SDS011;39172;45.550;12.072;2022-08-21T21:13:19;1.80;;;0.80;;
53287;SDS011;39172;45.550;12.072;2022-08-21T21:19:28;1.90;;;1.20;;
53287;SDS011;39172;45.550;12.072;2022-08-21T21:31:32;1.85;;;1.00;;
53287;SDS011;39172;45.550;12.072;2022-08-21T21:37:38;1.00;;;0.60;;
53287;SDS011;39172;45.550;12.072;2022-08-21T21:49:57;1.13;;;0.60;;
53287;SDS011;39172;45.550;12.072;2022-08-21T22:02:11;1.80;;;0.73;;
53287;SDS011;39172;45.550;12.072;2022-08-21T22:14:19;0.90;;;0.50;;
53287;SDS011;39172;45.550;12.072;2022-08-21T22:26:38;0.93;;;0.73;;
53287;SDS011;39172;45.550;12.072;2022-08-21T22:32:40;0.80;;;0.70;;
53287;SDS011;39172;45.550;12.072;2022-08-21T22:38:41;1.20;;;0.70;;
53287;SDS011;39172;45.550;12.072;2022-08-21T22:44:47;1.30;;;0.90;;
53287;SDS011;39172;45.550;12.072;2022-08-21T22:50:55;1.95;;;1.00;;
53287;SDS011;39172;45.550;12.072;2022-08-21T22:57:00;1.00;;;0.80;;
53287;SDS011;39172;45.550;12.072;2022-08-21T23:03:01;0.88;;;0.60;;
53287;SDS011;39172;45.550;12.072;2022-08-21T23:09:02;1.10;;;0.80;;
53287;SDS011;39172;45.550;12.072;2022-08-21T23:15:09;0.85;;;0.52;;
53287;SDS011;39172;45.550;12.072;2022-08-21T23:27:22;1.10;;;0.60;;
53287;SDS011;39172;45.550;12.072;2022-08-21T23:45:37;1.13;;;0.68;;
53287;SDS011;39172;45.550;12.072;2022-08-21T23:51:54;1.45;;;0.60;;
